Time;durP1;ratioP1;P1;durP2;ratioP2;P2;SDS_P1;SDS_P2;PMS_P1;PMS_P2;Temp;Humidity;BMP_temperature;BMP_pressure;BME280_temperature;BME280_humidity;BME280_pressure;Samples;Min_cycle;Max_cycle;Signal;HPM_P1;HPM_P2
2022/07/20 00:00:35;;;;;;;3.47;3.15;;;25.00;1.00;;;;;;5034100;28;20500;-81
2022/07/20 00:03:04;;;;;;;3.92;2.97;;;25.10;1.00;;;;;;5035256;28;20199;-82
2022/07/20 00:05:31;;;;;;;4.65;3.42;;;25.20;1.00;;;;;;5035296;28;20195;-83
2022/07/20 00:07:58;;;;;;;6.47;3.17;;;25.30;1.00;;;;;;5033920;28;20285;-80
2022/07/20 00:13:11;;;;;;;5.57;2.85;;;25.50;99.90;;;;;;5034921;28;20277;-81
2022/07/20 00:15:38;;;;;;;3.95;2.72;;;25.60;99.90;;;;;;5034328;28;20607;-82
2022/07/20 00:18:05;;;;;;;6.28;3.03;;;25.70;99.90;;;;;;5034456;28;20555;-82
2022/07/20 00:20:32;;;;;;;6.72;3.40;;;25.80;99.90;;;;;;5035460;28;20290;-82
2022/07/20 00:22:59;;;;;;;5.13;2.90;;;25.80;99.90;;;;;;5034378;28;20527;-81
2022/07/20 00:25:27;;;;;;;6.70;3.30;;;25.90;99.90;;;;;;5035129;28;20194;-85
2022/07/20 00:27:54;;;;;;;3.60;2.90;;;25.90;99.90;;;;;;5034312;28;20297;-82
2022/07/20 00:30:22;;;;;;;5.22;3.08;;;26.00;99.90;;;;;;5034995;28;20225;-83
2022/07/20 00:32:49;;;;;;;4.50;2.78;;;26.00;99.90;;;;;;5035397;28;20510;-82
2022/07/20 00:35:17;;;;;;;4.28;3.15;;;26.00;99.90;;;;;;5023998;28;20567;-86
2022/07/20 00:37:45;;;;;;;4.53;2.72;;;26.00;99.90;;;;;;5015465;28;20196;-82
2022/07/20 00:40:14;;;;;;;5.20;3.08;;;25.90;99.90;;;;;;5015489;28;20630;-81
2022/07/20 00:42:41;;;;;;;6.30;3.40;;;25.90;99.90;;;;;;5014250;28;20232;-82
2022/07/20 00:45:10;;;;;;;8.00;3.78;;;26.00;99.90;;;;;;5014657;28;20287;-85
2022/07/20 00:47:38;;;;;;;5.63;3.25;;;26.00;99.90;;;;;;5014599;28;20290;-81
2022/07/20 00:50:07;;;;;;;4.63;2.80;;;26.00;99.90;;;;;;5014046;28;20781;-80
2022/07/20 00:52:34;;;;;;;4.88;3.13;;;26.00;99.90;;;;;;4994436;28;20196;-80
2022/07/20 00:55:01;;;;;;;5.35;2.92;;;26.00;99.90;;;;;;4999204;28;20286;-83
2022/07/20 00:57:28;;;;;;;4.82;2.97;;;26.00;99.90;;;;;;5015071;28;20187;-83
2022/07/20 00:59:55;;;;;;;5.65;3.28;;;26.00;99.90;;;;;;5014539;28;20240;-83
2022/07/20 01:02:22;;;;;;;7.07;3.55;;;25.90;99.90;;;;;;5014336;28;20266;-81
2022/07/20 01:04:50;;;;;;;5.80;3.38;;;25.90;99.90;;;;;;5011097;28;20268;-81
2022/07/20 01:07:18;;;;;;;6.65;3.38;;;25.90;99.90;;;;;;5014321;28;20192;-81
2022/07/20 01:09:46;;;;;;;7.30;3.97;;;25.90;99.90;;;;;;5013798;28;20227;-82
2022/07/20 01:12:13;;;;;;;4.72;3.53;;;25.90;99.90;;;;;;5012790;28;20247;-78
2022/07/20 01:14:40;;;;;;;7.47;4.10;;;25.90;99.90;;;;;;5013675;28;20198;-81
2022/07/20 01:17:07;;;;;;;14.13;4.10;;;25.80;99.90;;;;;;5012221;28;20282;-79
2022/07/20 01:19:34;;;;;;;5.30;3.92;;;25.80;99.90;;;;;;5013273;28;20203;-80
2022/07/20 01:22:02;;;;;;;4.47;3.40;;;25.80;99.90;;;;;;5012657;28;20199;-79
2022/07/20 01:24:29;;;;;;;3.72;3.25;;;25.80;99.90;;;;;;5012963;28;20286;-79
2022/07/20 01:26:56;;;;;;;5.22;3.72;;;25.70;99.90;;;;;;5012193;28;20475;-80
2022/07/20 01:29:23;;;;;;;4.82;3.17;;;25.60;99.90;;;;;;5013632;28;20310;-82
2022/07/20 01:31:50;;;;;;;4.32;2.95;;;25.60;99.90;;;;;;5011874;28;20219;-80
2022/07/20 01:34:18;;;;;;;4.72;3.17;;;25.50;99.90;;;;;;5013808;28;20213;-83
2022/07/20 01:36:46;;;;;;;6.43;3.15;;;25.50;99.90;;;;;;5013602;28;20510;-82
2022/07/20 01:39:14;;;;;;;8.15;3.72;;;25.40;99.90;;;;;;5013002;28;20669;-81
2022/07/20 01:41:41;;;;;;;6.20;3.28;;;25.40;99.90;;;;;;5012047;28;20234;-81
2022/07/20 01:44:08;;;;;;;5.20;3.03;;;25.30;99.90;;;;;;5013126;28;20475;-80
2022/07/20 01:46:35;;;;;;;5.35;3.05;;;25.30;99.90;;;;;;5012650;28;20203;-81
2022/07/20 01:49:03;;;;;;;7.75;3.30;;;25.30;99.90;;;;;;5012389;28;20305;-82
2022/07/20 01:51:30;;;;;;;7.75;3.20;;;25.20;99.90;;;;;;5012973;28;20241;-80
2022/07/20 01:53:57;;;;;;;7.25;3.45;;;25.20;99.90;;;;;;5011313;28;20210;-82
2022/07/20 01:56:25;;;;;;;5.97;3.67;;;25.20;99.90;;;;;;5012248;28;20242;-80
2022/07/20 01:58:53;;;;;;;5.35;3.30;;;25.20;99.90;;;;;;5012654;28;20213;-82
2022/07/20 02:01:19;;;;;;;4.93;3.40;;;25.10;99.90;;;;;;5012176;28;20677;-80
2022/07/20 02:03:46;;;;;;;5.32;3.15;;;25.10;99.90;;;;;;5012648;28;20187;-82
2022/07/20 02:06:13;;;;;;;4.03;3.25;;;25.10;99.90;;;;;;5012047;28;20203;-80
2022/07/20 02:08:40;;;;;;;5.50;3.33;;;25.00;99.90;;;;;;5012676;28;20235;-82
2022/07/20 02:11:07;;;;;;;7.57;3.67;;;25.00;99.90;;;;;;5012857;28;20215;-82
2022/07/20 02:13:36;;;;;;;3.92;3.10;;;24.90;99.90;;;;;;5012879;28;20203;-81
2022/07/20 02:16:15;;;;;;;4.10;3.42;;;24.80;99.90;;;;;;5012517;28;20596;-81
2022/07/20 02:18:42;;;;;;;5.22;3.45;;;24.80;99.90;;;;;;4993507;28;20222;-81
2022/07/20 02:21:09;;;;;;;6.07;3.75;;;24.80;99.90;;;;;;4998187;28;20265;-81
2022/07/20 02:23:36;;;;;;;4.13;3.47;;;24.80;99.90;;;;;;5012881;28;20195;-80
2022/07/20 02:26:04;;;;;;;5.68;3.90;;;24.70;99.90;;;;;;5012642;28;20234;-81
2022/07/20 02:28:31;;;;;;;14.07;7.38;;;24.80;99.90;;;;;;4993121;28;20287;-86
2022/07/20 02:31:00;;;;;;;15.13;8.63;;;24.90;1.00;;;;;;4993977;28;20318;-83
2022/07/20 02:33:27;;;;;;;18.35;10.40;;;24.90;99.90;;;;;;4993790;28;20207;-81
2022/07/20 02:35:54;;;;;;;21.77;11.35;;;24.90;23.10;;;;;;5000990;28;20207;-84
2022/07/20 02:38:21;;;;;;;22.48;13.32;;;24.80;99.90;;;;;;5013009;28;20295;-83
2022/07/20 02:40:48;;;;;;;23.63;13.90;;;24.70;1.00;;;;;;5013037;28;20203;-86
2022/07/20 02:43:15;;;;;;;24.88;14.27;;;24.60;1.00;;;;;;5012910;28;20216;-83
2022/07/20 02:45:42;;;;;;;23.30;15.02;;;24.50;99.90;;;;;;5014017;28;20204;-85
2022/07/20 02:48:10;;;;;;;23.08;15.80;;;24.40;1.00;;;;;;5013249;28;20207;-83
2022/07/20 02:50:40;;;;;;;28.55;17.67;;;24.30;1.00;;;;;;5013052;28;20264;-84
2022/07/20 02:53:09;;;;;;;24.85;17.00;;;24.20;1.00;;;;;;5013229;28;20199;-81
2022/07/20 02:55:35;;;;;;;23.88;16.63;;;24.10;1.00;;;;;;5011906;28;20597;-82
2022/07/20 02:58:02;;;;;;;23.55;17.30;;;24.00;1.80;;;;;;5012905;28;20709;-83
2022/07/20 03:00:30;;;;;;;26.77;17.67;;;23.90;31.20;;;;;;5012750;28;20203;-81
2022/07/20 03:02:57;;;;;;;32.53;19.52;;;23.80;64.20;;;;;;5010824;28;20599;-79
2022/07/20 03:05:26;;;;;;;28.52;19.88;;;23.80;85.30;;;;;;5004266;28;20209;-79
2022/07/20 03:07:53;;;;;;;29.13;19.83;;;23.80;90.30;;;;;;5007604;28;20215;-79
2022/07/20 03:10:20;;;;;;;34.25;21.25;;;23.70;94.80;;;;;;5012787;28;20207;-81
2022/07/20 03:12:46;;;;;;;32.58;20.77;;;23.70;99.90;;;;;;5012730;28;20665;-79
2022/07/20 03:15:13;;;;;;;36.30;20.13;;;23.60;99.90;;;;;;5013824;28;20207;-79
2022/07/20 03:17:45;;;;;;;33.78;21.77;;;23.50;99.90;;;;;;5020056;28;20509;-79
2022/07/20 03:20:13;;;;;;;28.63;20.30;;;23.50;99.90;;;;;;5022575;28;20195;-80
2022/07/20 03:22:42;;;;;;;34.40;21.75;;;23.50;99.90;;;;;;5021725;28;20203;-79
2022/07/20 03:25:10;;;;;;;32.00;21.02;;;23.40;99.90;;;;;;5017461;28;20277;-81
2022/07/20 03:27:37;;;;;;;26.55;20.95;;;23.40;99.90;;;;;;5017016;28;20206;-80
2022/07/20 03:30:05;;;;;;;32.00;22.30;;;23.30;99.90;;;;;;5018003;28;20627;-80
2022/07/20 03:32:32;;;;;;;32.72;21.17;;;23.30;99.90;;;;;;5016002;28;20222;-80
2022/07/20 03:34:59;;;;;;;34.35;21.98;;;23.20;99.90;;;;;;5015819;28;20214;-79
2022/07/20 03:37:26;;;;;;;36.92;22.02;;;23.20;99.90;;;;;;5015590;28;20199;-81
2022/07/20 03:39:55;;;;;;;33.30;23.63;;;23.20;99.90;;;;;;5014853;28;20218;-82
2022/07/20 03:42:22;;;;;;;34.03;22.95;;;23.20;99.90;;;;;;5015065;28;20321;-80
2022/07/20 03:44:49;;;;;;;33.28;22.65;;;23.10;99.90;;;;;;5014581;28;20638;-80
2022/07/20 03:47:16;;;;;;;33.55;21.75;;;23.00;99.90;;;;;;5014644;28;20237;-80
2022/07/20 03:49:43;;;;;;;33.30;23.02;;;23.00;99.90;;;;;;5015428;28;20729;-80
2022/07/20 03:52:10;;;;;;;37.08;22.95;;;23.00;99.90;;;;;;5014977;28;20219;-78
2022/07/20 03:54:36;;;;;;;31.88;22.42;;;23.00;99.90;;;;;;5014500;28;20203;-79
2022/07/20 03:57:05;;;;;;;31.77;21.30;;;22.90;99.90;;;;;;5014845;28;20647;-80
2022/07/20 03:59:33;;;;;;;37.30;23.05;;;22.90;99.90;;;;;;5014196;28;20672;-79
2022/07/20 04:02:00;;;;;;;35.90;23.70;;;22.80;99.90;;;;;;5014927;28;20200;-79
2022/07/20 04:04:27;;;;;;;33.83;23.60;;;22.80;99.90;;;;;;5014533;28;20273;-79
2022/07/20 04:06:54;;;;;;;35.53;23.35;;;22.70;99.90;;;;;;5014223;28;20211;-81
2022/07/20 04:12:02;;;;;;;37.35;24.65;;;22.70;99.90;;;;;;5014096;28;20250;-79
2022/07/20 04:14:30;;;;;;;39.72;24.00;;;22.60;99.90;;;;;;5014043;28;20195;-79
2022/07/20 04:16:57;;;;;;;37.40;25.30;;;22.60;99.90;;;;;;5014284;28;20291;-79
2022/07/20 04:19:24;;;;;;;39.45;26.40;;;22.60;99.90;;;;;;5014271;28;20345;-80
2022/07/20 04:21:52;;;;;;;39.60;25.48;;;22.60;99.90;;;;;;5014301;28;20202;-80
2022/07/20 04:24:19;;;;;;;37.42;25.70;;;22.60;99.90;;;;;;5013756;28;20287;-80
2022/07/20 04:26:46;;;;;;;35.58;26.38;;;22.60;99.90;;;;;;5013833;28;20522;-84
2022/07/20 04:29:13;;;;;;;37.60;24.73;;;22.50;99.90;;;;;;5014282;28;20210;-81
2022/07/20 04:31:41;;;;;;;39.38;26.33;;;22.50;99.90;;;;;;5014433;28;20676;-82
2022/07/20 04:34:08;;;;;;;40.53;27.35;;;22.50;99.90;;;;;;5013286;28;20812;-82
2022/07/20 04:36:35;;;;;;;42.03;26.42;;;22.50;99.90;;;;;;5014507;28;20651;-81
2022/07/20 04:39:02;;;;;;;41.55;27.52;;;22.50;99.90;;;;;;5014931;28;20199;-82
2022/07/20 04:41:29;;;;;;;34.65;26.17;;;22.50;99.90;;;;;;5013810;28;20224;-81
2022/07/20 04:43:56;;;;;;;38.92;27.40;;;22.50;99.90;;;;;;5014848;28;20214;-83
2022/07/20 04:46:23;;;;;;;39.95;28.00;;;22.50;99.90;;;;;;5014333;28;20521;-81
2022/07/20 04:48:51;;;;;;;42.90;28.85;;;22.50;99.90;;;;;;5014357;28;20273;-79
2022/07/20 04:51:18;;;;;;;44.33;28.08;;;22.60;99.90;;;;;;5013006;28;20207;-84
2022/07/20 04:53:46;;;;;;;37.13;27.88;;;22.50;99.90;;;;;;5013697;28;20278;-82
2022/07/20 04:56:13;;;;;;;43.67;30.67;;;22.50;99.90;;;;;;5013052;28;20257;-82
2022/07/20 04:58:40;;;;;;;43.85;30.95;;;22.50;99.90;;;;;;5013805;28;20306;-82
2022/07/20 05:01:07;;;;;;;43.50;29.67;;;22.60;99.90;;;;;;5013643;28;20211;-82
2022/07/20 05:03:34;;;;;;;39.53;28.88;;;22.60;99.90;;;;;;5013254;28;20204;-82
2022/07/20 05:06:03;;;;;;;33.97;28.42;;;22.60;99.90;;;;;;5014001;28;20226;-83
2022/07/20 05:08:30;;;;;;;39.55;28.98;;;22.60;99.90;;;;;;5013389;28;20213;-81
2022/07/20 05:10:57;;;;;;;34.53;27.58;;;22.70;99.90;;;;;;5013551;28;20215;-82
2022/07/20 05:13:24;;;;;;;36.58;28.70;;;22.60;99.90;;;;;;5013768;28;20233;-82
2022/07/20 05:15:51;;;;;;;42.60;29.48;;;22.70;99.90;;;;;;5014253;28;20210;-81
2022/07/20 05:18:18;;;;;;;41.10;29.10;;;22.70;99.90;;;;;;5013564;28;20207;-84
2022/07/20 05:20:45;;;;;;;40.45;29.33;;;22.80;99.90;;;;;;5015043;28;20286;-84
2022/07/20 05:23:13;;;;;;;38.97;28.60;;;22.80;99.90;;;;;;5012516;28;20281;-81
2022/07/20 05:25:40;;;;;;;40.60;28.88;;;22.80;99.90;;;;;;5013175;28;20765;-80
2022/07/20 05:28:07;;;;;;;38.97;28.30;;;22.80;99.90;;;;;;5013582;28;20497;-83
2022/07/20 05:30:34;;;;;;;39.35;27.65;;;22.90;99.90;;;;;;5013020;28;20210;-82
2022/07/20 05:33:01;;;;;;;40.97;27.98;;;23.00;99.90;;;;;;5012976;28;20211;-84
2022/07/20 05:35:28;;;;;;;32.13;25.08;;;23.00;99.90;;;;;;5013539;28;20213;-86
2022/07/20 05:37:55;;;;;;;35.20;26.08;;;23.00;99.90;;;;;;5013829;28;20300;-87
2022/07/20 05:40:23;;;;;;;35.47;27.13;;;23.10;99.90;;;;;;5014708;28;20208;-85
2022/07/20 05:42:50;;;;;;;33.13;27.00;;;23.10;99.90;;;;;;5015542;28;20523;-84
2022/07/20 05:45:17;;;;;;;39.47;26.30;;;23.20;99.90;;;;;;5015244;28;20497;-85
2022/07/20 05:47:44;;;;;;;39.60;26.45;;;23.30;99.90;;;;;;5014323;28;20209;-84
2022/07/20 05:50:11;;;;;;;34.13;26.13;;;23.40;99.90;;;;;;5013759;28;20207;-85
2022/07/20 05:52:39;;;;;;;38.63;23.55;;;23.50;99.90;;;;;;5015047;28;20219;-85
2022/07/20 05:55:07;;;;;;;39.28;23.95;;;23.60;99.90;;;;;;5015576;28;20226;-84
2022/07/20 05:57:35;;;;;;;34.25;22.58;;;23.70;99.90;;;;;;5014308;28;20650;-83
2022/07/20 06:00:03;;;;;;;28.48;21.30;;;23.80;99.90;;;;;;5014238;28;20203;-84
2022/07/20 06:02:30;;;;;;;27.65;20.08;;;23.90;99.90;;;;;;5015542;28;20302;-84
2022/07/20 06:04:57;;;;;;;30.33;20.27;;;24.00;99.90;;;;;;4998443;28;20314;-82
2022/07/20 06:07:24;;;;;;;31.42;19.27;;;24.10;99.90;;;;;;4995981;28;20192;-90
2022/07/20 06:09:51;;;;;;;28.58;19.30;;;24.20;99.90;;;;;;4995973;28;20204;-87
2022/07/20 06:12:18;;;;;;;25.88;18.75;;;24.30;99.90;;;;;;4996278;28;20223;-93
2022/07/20 06:14:46;;;;;;;27.23;17.23;;;24.10;99.90;;;;;;5016288;28;20502;-95
2022/07/20 06:17:13;;;;;;;24.95;17.88;;;24.00;99.90;;;;;;5015775;28;20566;-94
2022/07/20 06:19:40;;;;;;;26.95;17.55;;;24.00;99.90;;;;;;5015806;28;20497;-90
2022/07/20 06:22:08;;;;;;;30.60;17.75;;;24.00;99.90;;;;;;5016911;28;20439;-87
2022/07/20 06:24:34;;;;;;;23.00;15.55;;;23.90;99.90;;;;;;5016710;28;20227;-88
2022/07/20 06:27:01;;;;;;;27.75;17.52;;;24.00;99.90;;;;;;5015826;28;20559;-95
2022/07/20 06:29:28;;;;;;;20.63;15.45;;;23.90;99.90;;;;;;5016266;28;20479;-88
2022/07/20 06:31:57;;;;;;;22.15;16.92;;;24.00;99.90;;;;;;5014146;28;20290;-93
2022/07/20 06:34:24;;;;;;;22.35;16.13;;;24.00;99.90;;;;;;5014466;28;20286;-88
2022/07/20 06:36:51;;;;;;;29.08;16.33;;;24.00;99.90;;;;;;5014366;28;20203;-88
2022/07/20 06:39:17;;;;;;;22.35;15.65;;;23.90;99.90;;;;;;5011769;28;20290;-86
2022/07/20 06:41:44;;;;;;;25.00;15.52;;;23.90;99.90;;;;;;5012294;28;20246;-87
2022/07/20 06:44:11;;;;;;;26.90;15.82;;;23.90;99.90;;;;;;5015379;28;20199;-90
2022/07/20 06:46:38;;;;;;;22.88;15.52;;;23.80;99.90;;;;;;5013428;28;20203;-90
2022/07/20 06:49:06;;;;;;;28.52;15.10;;;23.80;99.90;;;;;;5015451;28;20312;-85
2022/07/20 06:51:34;;;;;;;22.92;14.77;;;23.80;99.90;;;;;;5014869;28;20226;-87
2022/07/20 06:54:00;;;;;;;23.23;14.85;;;23.80;99.90;;;;;;5019333;28;20206;-92
2022/07/20 06:56:28;;;;;;;27.17;15.15;;;23.80;99.90;;;;;;5019350;28;20281;-92
2022/07/20 06:58:58;;;;;;;22.58;15.00;;;23.90;99.90;;;;;;5015552;28;20230;-82
2022/07/20 07:01:25;;;;;;;24.83;15.52;;;23.90;99.90;;;;;;5016156;28;20259;-88
2022/07/20 07:03:51;;;;;;;22.55;15.10;;;23.80;99.90;;;;;;5018701;28;20195;-82
2022/07/20 07:06:21;;;;;;;28.83;15.73;;;23.70;99.90;;;;;;5013698;28;20199;-87
2022/07/20 07:08:48;;;;;;;27.45;14.93;;;23.80;99.90;;;;;;5017162;28;20226;-91
2022/07/20 07:11:15;;;;;;;25.00;14.43;;;24.00;99.90;;;;;;5013613;28;20202;-82
2022/07/20 07:13:42;;;;;;;25.65;13.57;;;24.30;99.90;;;;;;5012084;28;20235;-80
2022/07/20 07:16:09;;;;;;;25.48;13.48;;;24.50;99.90;;;;;;5015407;28;20200;-82
2022/07/20 07:18:36;;;;;;;28.17;12.05;;;24.70;99.90;;;;;;5015841;28;20207;-81
2022/07/20 07:21:03;;;;;;;24.92;11.93;;;25.00;99.90;;;;;;5015837;28;20199;-82
2022/07/20 07:23:31;;;;;;;23.38;12.85;;;25.10;99.90;;;;;;5013759;28;20204;-79
2022/07/20 07:25:58;;;;;;;23.88;12.00;;;25.30;99.90;;;;;;5014865;28;20548;-78
2022/07/20 07:28:25;;;;;;;23.33;12.23;;;25.50;99.90;;;;;;5014419;28;20291;-81
2022/07/20 07:30:52;;;;;;;26.30;11.80;;;25.50;99.90;;;;;;5011822;28;20207;-80
2022/07/20 07:33:25;;;;;;;18.42;10.70;;;25.50;99.90;;;;;;5014729;28;20305;-81
2022/07/20 07:35:51;;;;;;;21.35;10.98;;;25.40;99.90;;;;;;5014969;28;20211;-79
2022/07/20 07:38:18;;;;;;;24.83;11.02;;;25.20;99.90;;;;;;5014037;28;20195;-80
2022/07/20 07:40:47;;;;;;;19.33;10.20;;;25.10;99.90;;;;;;5013916;28;20207;-77
2022/07/20 07:43:14;;;;;;;24.73;11.00;;;25.10;99.90;;;;;;5014694;28;20563;-80
2022/07/20 07:45:41;;;;;;;18.02;10.60;;;25.30;99.90;;;;;;5014304;28;20286;-78
2022/07/20 07:48:10;;;;;;;18.08;10.68;;;25.50;99.90;;;;;;5013244;28;20576;-79
2022/07/20 07:50:37;;;;;;;16.35;11.15;;;25.60;99.90;;;;;;5014839;28;20203;-79
2022/07/20 07:53:05;;;;;;;19.23;11.05;;;25.90;99.90;;;;;;5014384;28;20306;-80
2022/07/20 07:55:32;;;;;;;17.10;10.77;;;26.20;99.90;;;;;;5014491;28;20239;-80
2022/07/20 07:58:01;;;;;;;20.38;10.98;;;26.50;99.90;;;;;;5013293;28;20294;-81
2022/07/20 08:00:28;;;;;;;22.67;11.15;;;26.80;99.90;;;;;;5014760;28;20221;-79
2022/07/20 08:02:55;;;;;;;18.35;10.48;;;27.10;99.90;;;;;;5014217;28;20510;-79
2022/07/20 08:05:22;;;;;;;23.08;10.52;;;27.30;99.90;;;;;;5012824;28;20194;-81
2022/07/20 08:07:50;;;;;;;16.38;10.23;;;27.50;99.90;;;;;;5014118;28;20282;-82
2022/07/20 08:10:17;;;;;;;19.27;10.70;;;27.60;99.90;;;;;;5013926;28;20205;-81
2022/07/20 08:12:43;;;;;;;21.35;10.57;;;27.70;99.90;;;;;;5013488;28;20804;-81
2022/07/20 08:15:12;;;;;;;18.00;10.00;;;27.80;99.90;;;;;;5013518;28;20216;-80
2022/07/20 08:17:40;;;;;;;21.38;9.65;;;28.00;99.90;;;;;;5013637;28;20206;-80
2022/07/20 08:20:08;;;;;;;19.45;9.90;;;28.10;99.90;;;;;;5013532;28;20195;-87
2022/07/20 08:22:34;;;;;;;17.13;10.02;;;28.20;99.90;;;;;;5014797;28;20234;-79
2022/07/20 08:25:01;;;;;;;20.52;9.43;;;28.40;99.90;;;;;;5014810;28;20195;-79
2022/07/20 08:27:28;;;;;;;17.77;8.88;;;28.40;99.90;;;;;;5013887;28;20195;-80
2022/07/20 08:29:58;;;;;;;14.27;8.70;;;28.50;99.90;;;;;;5014235;28;20283;-82
2022/07/20 08:32:27;;;;;;;14.43;8.60;;;28.50;99.90;;;;;;5013858;28;20195;-83
2022/07/20 08:34:54;;;;;;;17.20;9.70;;;28.50;99.90;;;;;;5013418;28;20214;-87
2022/07/20 08:37:21;;;;;;;17.30;9.45;;;28.40;99.90;;;;;;5014545;28;20623;-84
2022/07/20 08:39:48;;;;;;;20.15;8.88;;;28.70;99.90;;;;;;5014669;28;20413;-87
2022/07/20 08:42:16;;;;;;;20.38;9.52;;;28.70;99.90;;;;;;5013975;28;20509;-80
2022/07/20 08:44:43;;;;;;;13.23;8.20;;;29.00;99.90;;;;;;5014051;28;20215;-84
2022/07/20 08:47:12;;;;;;;12.63;8.73;;;29.20;99.90;;;;;;5014820;28;20283;-85
2022/07/20 08:49:45;;;;;;;17.42;9.50;;;29.40;99.90;;;;;;5014691;28;20628;-86
2022/07/20 08:52:12;;;;;;;13.90;8.60;;;29.60;99.90;;;;;;5015534;28;20194;-91
2022/07/20 08:54:39;;;;;;;18.02;9.32;;;29.60;99.90;;;;;;5014277;28;20234;-88
2022/07/20 08:57:09;;;;;;;15.75;8.63;;;29.70;99.90;;;;;;5011390;28;20231;-80
2022/07/20 08:59:36;;;;;;;16.45;8.95;;;29.90;99.90;;;;;;5012289;28;20294;-80
2022/07/20 09:02:05;;;;;;;17.05;8.40;;;30.00;99.90;;;;;;5012990;28;20206;-81
2022/07/20 09:04:32;;;;;;;22.25;9.45;;;30.00;99.90;;;;;;5012234;28;20199;-82
2022/07/20 09:07:01;;;;;;;14.65;8.55;;;29.80;99.90;;;;;;5012980;28;20229;-80
2022/07/20 09:09:28;;;;;;;13.77;8.63;;;29.70;99.90;;;;;;5013347;28;20207;-83
2022/07/20 09:11:55;;;;;;;16.75;8.95;;;29.70;99.90;;;;;;5013385;28;20206;-81
2022/07/20 09:14:42;;;;;;;18.40;8.82;;;29.30;99.90;;;;;;5012115;28;20228;-79
2022/07/20 09:17:21;;;;;;;19.55;9.32;;;29.20;99.90;;;;;;5012165;28;20191;-80
2022/07/20 09:19:56;;;;;;;19.02;9.02;;;29.20;99.90;;;;;;5012679;28;20211;-81
2022/07/20 09:22:35;;;;;;;15.75;8.07;;;29.40;99.90;;;;;;5012189;28;20265;-82
2022/07/20 09:25:12;;;;;;;13.77;7.38;;;29.60;99.90;;;;;;5013632;28;20195;-82
2022/07/20 09:27:39;;;;;;;15.20;6.90;;;29.90;99.90;;;;;;5012946;28;20270;-79
2022/07/20 09:30:09;;;;;;;10.82;6.28;;;30.00;99.90;;;;;;5012725;28;20207;-80
2022/07/20 09:32:52;;;;;;;12.77;6.97;;;29.80;99.90;;;;;;5013099;28;20202;-84
2022/07/20 09:35:21;;;;;;;13.70;6.80;;;30.00;99.90;;;;;;5012302;28;20274;-79
2022/07/20 09:37:49;;;;;;;10.38;6.18;;;30.20;99.90;;;;;;5006136;28;20217;-83
2022/07/20 09:40:16;;;;;;;11.00;5.85;;;30.20;99.90;;;;;;5008567;28;20310;-80
2022/07/20 09:42:47;;;;;;;10.65;5.47;;;30.10;99.90;;;;;;5012732;28;20230;-82
2022/07/20 09:45:28;;;;;;;10.98;4.22;;;30.10;99.90;;;;;;5012601;28;20203;-85
2022/07/20 09:48:06;;;;;;;13.90;5.18;;;29.90;99.90;;;;;;5011910;28;20265;-82
2022/07/20 09:50:34;;;;;;;9.73;4.22;;;29.70;99.90;;;;;;5011104;28;20209;-82
2022/07/20 09:53:03;;;;;;;13.02;4.90;;;29.90;99.90;;;;;;5013003;28;20210;-85
2022/07/20 09:55:32;;;;;;;10.68;4.13;;;30.30;99.90;;;;;;5011885;28;20915;-83
2022/07/20 09:57:59;;;;;;;8.55;3.67;;;30.60;99.90;;;;;;5011721;28;20195;-88
2022/07/20 10:00:26;;;;;;;7.03;4.55;;;30.60;99.90;;;;;;5013066;28;20199;-81
2022/07/20 10:02:54;;;;;;;12.60;4.38;;;30.70;99.90;;;;;;5012398;28;20206;-84
2022/07/20 10:05:23;;;;;;;10.27;4.10;;;30.70;99.90;;;;;;5012366;28;20199;-84
2022/07/20 10:07:50;;;;;;;10.48;4.88;;;30.80;99.90;;;;;;5012030;28;20206;-80
2022/07/20 10:10:19;;;;;;;11.50;4.47;;;31.10;99.90;;;;;;5012153;28;20203;-85
2022/07/20 10:12:45;;;;;;;8.65;4.22;;;31.10;99.90;;;;;;5012165;28;20207;-81
2022/07/20 10:15:16;;;;;;;11.38;4.93;;;31.10;99.90;;;;;;5013746;28;20222;-88
2022/07/20 10:17:45;;;;;;;10.95;4.57;;;31.00;99.90;;;;;;5011234;28;20250;-85
2022/07/20 10:20:33;;;;;;;10.35;4.63;;;30.90;99.90;;;;;;5012964;28;20206;-89
2022/07/20 10:23:29;;;;;;;8.70;5.30;;;30.90;99.90;;;;;;5006291;28;20557;-89
2022/07/20 10:25:58;;;;;;;11.25;5.63;;;30.80;99.90;;;;;;5000552;28;20195;-91
2022/07/20 10:28:32;;;;;;;9.88;4.32;;;30.70;99.90;;;;;;5014254;28;20221;-88
2022/07/20 10:31:02;;;;;;;13.90;4.47;;;30.60;99.90;;;;;;5013984;28;20282;-84
2022/07/20 10:33:31;;;;;;;8.85;4.30;;;30.50;99.90;;;;;;5014239;28;20254;-88
2022/07/20 10:38:39;;;;;;;8.50;4.80;;;29.90;99.90;;;;;;5012684;28;20581;-87
2022/07/20 10:44:29;;;;;;;12.30;4.65;;;29.70;99.90;;;;;;5012974;28;20206;-90
2022/07/20 10:46:56;;;;;;;10.18;4.13;;;29.70;99.90;;;;;;5013304;28;20229;-87
2022/07/20 10:50:01;;;;;;;9.38;4.57;;;29.80;99.90;;;;;;5014276;28;20201;-86
2022/07/20 10:52:33;;;;;;;8.68;4.80;;;29.90;99.90;;;;;;5011240;28;20290;-87
2022/07/20 10:55:00;;;;;;;9.18;4.60;;;30.00;99.90;;;;;;5013510;28;20527;-86
2022/07/20 10:57:28;;;;;;;11.50;5.18;;;30.10;99.90;;;;;;5013242;28;20203;-84
2022/07/20 11:00:14;;;;;;;8.75;4.75;;;30.50;99.90;;;;;;5013295;28;20207;-86
2022/07/20 11:02:41;;;;;;;10.65;5.00;;;30.60;99.90;;;;;;5014224;28;20191;-84
2022/07/20 11:05:22;;;;;;;8.48;4.30;;;30.80;99.90;;;;;;5012566;28;20703;-79
2022/07/20 11:07:49;;;;;;;9.85;4.25;;;30.70;99.90;;;;;;5009442;28;20616;-87
2022/07/20 11:10:22;;;;;;;10.27;3.95;;;30.50;99.90;;;;;;5012781;28;20290;-90
2022/07/20 11:12:59;;;;;;;13.93;5.18;;;30.60;99.90;;;;;;5012067;28;20203;-91
2022/07/20 11:15:38;;;;;;;7.55;4.40;;;30.70;99.90;;;;;;5011892;28;20718;-86
2022/07/20 11:18:06;;;;;;;11.35;4.50;;;30.70;99.90;;;;;;5014521;28;20203;-90
2022/07/20 11:20:34;;;;;;;10.45;4.40;;;30.70;99.90;;;;;;5014619;28;20290;-86
2022/07/20 11:23:02;;;;;;;8.93;4.20;;;30.70;99.90;;;;;;5014533;28;20191;-92
2022/07/20 11:25:45;;;;;;;16.15;5.20;;;30.80;99.90;;;;;;5014500;28;20195;-86
2022/07/20 11:28:13;;;;;;;13.93;5.07;;;30.70;99.90;;;;;;4994526;28;20204;-83
2022/07/20 11:30:42;;;;;;;9.55;5.25;;;30.60;99.90;;;;;;4994531;28;20492;-88
2022/07/20 11:33:09;;;;;;;11.65;5.30;;;30.50;99.90;;;;;;4994992;28;20204;-90
2022/07/20 11:35:38;;;;;;;12.63;5.20;;;30.60;99.90;;;;;;4996344;28;20230;-90
2022/07/20 11:38:05;;;;;;;12.10;5.50;;;30.40;99.90;;;;;;5016095;28;20233;-88
2022/07/20 11:40:32;;;;;;;10.82;5.13;;;30.00;99.90;;;;;;5017801;28;20592;-88
2022/07/20 11:43:11;;;;;;;10.50;5.00;;;30.10;99.90;;;;;;5016626;28;20258;-93
2022/07/20 11:45:39;;;;;;;9.20;5.10;;;30.30;99.90;;;;;;5017399;28;20195;-86
2022/07/20 11:48:20;;;;;;;11.88;4.97;;;30.40;99.90;;;;;;5017419;28;20208;-89
2022/07/20 11:50:47;;;;;;;10.30;4.80;;;30.50;99.90;;;;;;5017446;28;20199;-90
2022/07/20 11:53:26;;;;;;;8.55;4.57;;;30.30;99.90;;;;;;5001205;28;20560;-84
2022/07/20 11:55:53;;;;;;;12.13;5.68;;;30.30;99.90;;;;;;4995746;28;20235;-86
2022/07/20 11:58:28;;;;;;;10.45;5.22;;;30.20;99.90;;;;;;4997408;28;20200;-85
2022/07/20 12:00:57;;;;;;;9.63;5.50;;;30.20;99.90;;;;;;4999392;28;20206;-89
2022/07/20 12:03:28;;;;;;;9.25;5.10;;;30.00;99.90;;;;;;5016467;28;20215;-90
2022/07/20 12:05:55;;;;;;;11.80;5.70;;;29.50;99.90;;;;;;5016861;28;20199;-87
2022/07/20 12:08:24;;;;;;;11.98;6.05;;;29.10;99.90;;;;;;5016907;28;20200;-89
2022/07/20 12:10:51;;;;;;;7.38;5.15;;;28.80;99.90;;;;;;5016558;28;20230;-88
2022/07/20 12:13:18;;;;;;;9.52;5.10;;;28.80;99.90;;;;;;5016072;28;20199;-88
2022/07/20 12:16:01;;;;;;;10.30;5.18;;;28.80;99.90;;;;;;5017144;28;20310;-92
2022/07/20 12:18:40;;;;;;;7.78;4.50;;;29.10;99.90;;;;;;5017849;28;20191;-90
2022/07/20 12:21:10;;;;;;;6.75;3.63;;;29.20;99.90;;;;;;5016864;28;20222;-90
2022/07/20 12:23:38;;;;;;;5.63;3.65;;;29.30;99.90;;;;;;5016857;28;20489;-88
2022/07/20 12:26:20;;;;;;;11.18;4.13;;;29.40;99.90;;;;;;5017460;28;20206;-90
2022/07/20 12:28:48;;;;;;;8.25;3.53;;;29.40;99.90;;;;;;5015872;28;20203;-83
2022/07/20 12:31:18;;;;;;;11.35;4.13;;;29.70;99.90;;;;;;5015343;28;20201;-83
2022/07/20 12:34:05;;;;;;;6.85;2.90;;;29.60;99.90;;;;;;5014304;28;20264;-82
2022/07/20 12:36:34;;;;;;;5.75;3.30;;;29.60;99.90;;;;;;5013306;28;20199;-80
2022/07/20 12:39:01;;;;;;;7.00;3.55;;;29.70;99.90;;;;;;5019381;23;20239;-78
2022/07/20 12:41:28;;;;;;;6.07;2.90;;;29.30;99.90;;;;;;5013363;28;20224;-81
2022/07/20 12:43:55;;;;;;;8.32;3.42;;;28.90;99.90;;;;;;5015484;28;20203;-83
2022/07/20 12:46:25;;;;;;;8.63;3.80;;;28.50;99.90;;;;;;5015503;28;20202;-90
2022/07/20 12:48:52;;;;;;;6.88;3.20;;;28.20;99.90;;;;;;5014238;28;20207;-87
2022/07/20 12:51:20;;;;;;;7.68;3.30;;;27.80;99.90;;;;;;5016008;28;20222;-89
2022/07/20 12:53:49;;;;;;;7.18;3.55;;;27.70;99.90;;;;;;5015519;28;20218;-84